Minneapolis, Minnesota
Traffic Map
Current Weather Conditions
Minneapolis, Minnesota
Overcast
Overcast
-2°
Feels Like: -9°
Wind Chill: -9° Ceiling: 1000
Heat Index: -2° Visibility: 10mi
Dew Point: -2° Wind: 18mph
Humidity: 100% Direction: 350° (N)
Pressure: 29.99in Gusts: 25mph
Raw Report DataKMSP 170700Z 35016G22KT 10SM OVC010 M02/M02 A2999 RMK AO2 T10221022 $
Traffic Incident Summary
Active as of:
Severity:
Category:
InformationThere was an issue retrieving the traffic information for this location. Please try a different location or try again shortly.
Advertisements
At Last! Intellicast now available for iPhone and Android